LVNO2: Poteau River At Loving, OK
Data processed at Tue 04Apr2023 04:02 GMT
All information presented herein is the property of the government of the United States of America and may be revised or deleted at any time without prior notice.
Dissemination of this information without the expressed written consent of the Public Affairs Office, Tulsa District U.S. Army Corps of Engineers is strictly prohibited.
These data are gathered electronically and, as presented, have not undergone any form of quality control. These data are not guaranteed to be valid or correct.
Go to home page.
Go to station list.
Upstream stations:
Downstream station:Previous Day
Next Day
Current Day
SHEF ID: LVNO2 Poteau River at Loving, OK
STATION TYPE:
Regulating: Stage = 20.00, Flow = 4523
STAGE RIV-FLOW
ft cfs
Ccp-Rev Ccp-Rev
(US/Central)
04/03 00:00 12.47 892
04/03 01:00 12.61 946
04/03 02:00 12.79 1016
04/03 03:00 12.87 1046
04/03 04:00 12.88 1050
04/03 05:00 12.84 1035
04/03 06:00 12.81 1023
04/03 07:00 12.87 1046
04/03 08:00 13.01 1101
04/03 09:00 13.17 1166
04/03 10:00 13.29 1215
04/03 11:00 13.33 1231
04/03 12:00 13.29 1215
04/03 13:00 13.21 1182
04/03 14:00 13.07 1125
04/03 15:00 12.94 1074
04/03 16:00 12.80 1019
04/03 17:00 12.66 965
04/03 18:00 12.54 919
04/03 19:00 12.42 874
04/03 20:00 12.32 837
04/03 21:00 12.23 804
04/03 22:00 12.15 775
04/03 23:00 ---- ----